Time;durP1;ratioP1;P1;durP2;ratioP2;P2;SDS_P1;SDS_P2;PMS_P1;PMS_P2;Temp;Humidity;BMP_temperature;BMP_pressure;BME280_temperature;BME280_humidity;BME280_pressure;Samples;Min_cycle;Max_cycle;Signal;HPM_P1;HPM_P2
2023/05/23 00:02:19;;;;;;;16.55;11.57;;;18.80;99.90;;;;;;6248916;28;20486;-75
2023/05/23 00:05:21;;;;;;;16.55;12.40;;;18.80;99.90;;;;;;6249117;28;20078;-74
2023/05/23 00:08:24;;;;;;;15.50;11.43;;;18.70;99.90;;;;;;6249041;28;20056;-74
2023/05/23 00:11:27;;;;;;;15.23;10.73;;;18.70;99.90;;;;;;6249068;28;20049;-76
2023/05/23 00:14:32;;;;;;;14.73;11.40;;;18.80;99.90;;;;;;6254998;28;20049;-76
2023/05/23 00:17:35;;;;;;;14.75;11.23;;;18.80;99.90;;;;;;6252262;28;20508;-76
2023/05/23 00:20:39;;;;;;;15.55;11.65;;;18.80;99.90;;;;;;6249401;28;20053;-77
2023/05/23 00:23:43;;;;;;;15.07;11.27;;;18.80;99.90;;;;;;6248472;28;20045;-74
2023/05/23 00:26:45;;;;;;;13.73;10.90;;;18.70;99.90;;;;;;6248478;28;20042;-75
2023/05/23 00:29:47;;;;;;;14.50;11.63;;;18.70;99.90;;;;;;6248121;28;20053;-76
2023/05/23 00:32:48;;;;;;;19.55;12.52;;;18.70;99.90;;;;;;6248009;28;20045;-74
2023/05/23 00:35:51;;;;;;;17.30;12.35;;;18.70;99.90;;;;;;6248278;28;20052;-75
2023/05/23 00:38:54;;;;;;;16.83;12.48;;;18.70;99.90;;;;;;6248392;28;20052;-74
2023/05/23 00:41:56;;;;;;;;;;;18.70;99.90;;;;;;6248606;28;20135;-74
2023/05/23 00:44:58;;;;;;;18.55;12.65;;;18.70;99.90;;;;;;6248518;28;20358;-77
2023/05/23 00:48:01;;;;;;;18.42;13.10;;;18.70;99.90;;;;;;6248155;28;20136;-76
2023/05/23 00:51:03;;;;;;;18.57;12.53;;;18.70;99.90;;;;;;6248072;28;20056;-78
2023/05/23 00:54:07;;;;;;;16.33;12.45;;;18.70;99.90;;;;;;6247970;28;20308;-75
2023/05/23 00:57:08;;;;;;;;;;;18.60;99.90;;;;;;6248243;28;20052;-73
2023/05/23 01:00:13;;;;;;;18.30;12.43;;;18.60;99.90;;;;;;6248176;28;19924;-73
2023/05/23 01:03:16;;;;;;;20.35;13.07;;;18.60;99.90;;;;;;6247935;28;20402;-75
2023/05/23 01:06:20;;;;;;;17.88;13.05;;;18.60;99.90;;;;;;6247751;28;20056;-74
2023/05/23 01:09:29;;;;;;;18.33;13.10;;;18.60;99.90;;;;;;6247807;28;20042;-74
2023/05/23 01:12:41;;;;;;;19.85;13.93;;;18.60;99.90;;;;;;6247639;28;20054;-75
2023/05/23 01:15:52;;;;;;;18.98;13.48;;;18.60;99.90;;;;;;6247502;28;20430;-75
2023/05/23 01:19:01;;;;;;;18.73;12.77;;;18.60;99.90;;;;;;6247601;28;20050;-74
2023/05/23 01:22:11;;;;;;;17.45;13.70;;;18.60;99.90;;;;;;6247679;28;20045;-75
2023/05/23 01:25:28;;;;;;;17.70;12.98;;;18.60;99.90;;;;;;6247613;28;20381;-75
2023/05/23 01:28:37;;;;;;;19.05;13.93;;;18.60;99.90;;;;;;6247723;28;20045;-74
2023/05/23 01:31:44;;;;;;;21.17;14.10;;;18.60;99.90;;;;;;6247372;28;20065;-77
2023/05/23 01:34:47;;;;;;;21.58;14.15;;;18.60;99.90;;;;;;6247201;28;20475;-77
2023/05/23 01:37:49;;;;;;;23.55;15.15;;;18.60;99.90;;;;;;6247375;28;20045;-74
2023/05/23 01:40:51;;;;;;;21.65;15.07;;;18.60;99.90;;;;;;6247303;28;20171;-77
2023/05/23 01:43:54;;;;;;;23.40;15.05;;;18.60;99.90;;;;;;6248891;28;20049;-76
2023/05/23 01:46:57;;;;;;;21.38;14.88;;;18.60;99.90;;;;;;6252233;28;20056;-74
2023/05/23 01:49:59;;;;;;;21.00;14.45;;;18.60;99.90;;;;;;6252174;28;20042;-76
2023/05/23 01:53:02;;;;;;;21.27;14.57;;;18.60;99.90;;;;;;6251995;28;20054;-76
2023/05/23 01:56:04;;;;;;;22.55;14.82;;;18.60;99.90;;;;;;6251958;28;20045;-74
2023/05/23 01:59:09;;;;;;;21.00;14.93;;;18.50;99.90;;;;;;6251905;28;20053;-75
2023/05/23 02:02:11;;;;;;;24.05;15.55;;;18.50;99.90;;;;;;6251875;28;20046;-75
2023/05/23 02:05:13;;;;;;;20.63;15.02;;;18.50;99.90;;;;;;6251644;28;20486;-73
2023/05/23 02:08:15;;;;;;;22.80;16.10;;;18.50;99.90;;;;;;6252184;28;20041;-75
2023/05/23 02:11:17;;;;;;;22.25;16.02;;;18.50;99.90;;;;;;6251755;28;20054;-75
2023/05/23 02:14:20;;;;;;;26.20;17.00;;;18.40;99.90;;;;;;6251405;28;20052;-75
2023/05/23 02:17:23;;;;;;;22.02;15.85;;;18.40;99.90;;;;;;6251587;28;20057;-75
2023/05/23 02:20:24;;;;;;;24.90;16.58;;;18.50;99.90;;;;;;6253689;28;20165;-74
2023/05/23 02:23:26;;;;;;;24.23;16.10;;;18.50;99.90;;;;;;6254785;28;20498;-77
2023/05/23 02:26:28;;;;;;;25.27;16.67;;;18.50;99.90;;;;;;6252342;28;20053;-78
2023/05/23 02:29:31;;;;;;;27.05;17.30;;;18.50;99.90;;;;;;6251230;28;20045;-75
2023/05/23 02:32:33;;;;;;;28.55;18.02;;;18.40;99.90;;;;;;6251260;28;20053;-75
2023/05/23 02:35:35;;;;;;;31.65;19.80;;;18.50;99.90;;;;;;6251714;28;20621;-74
2023/05/23 02:38:37;;;;;;;29.90;18.73;;;18.40;99.90;;;;;;6251124;28;20051;-74
2023/05/23 02:41:39;;;;;;;27.77;18.40;;;18.40;99.90;;;;;;6250273;28;20046;-74
2023/05/23 02:44:42;;;;;;;30.20;20.08;;;18.40;99.90;;;;;;6250719;28;20049;-74
2023/05/23 02:47:44;;;;;;;29.52;21.00;;;18.30;99.90;;;;;;6250989;28;20046;-75
2023/05/23 02:50:46;;;;;;;38.40;23.10;;;18.30;99.90;;;;;;6250945;28;20045;-76
2023/05/23 02:53:48;;;;;;;35.75;23.08;;;18.30;99.90;;;;;;6250522;28;20507;-73
2023/05/23 02:56:51;;;;;;;32.58;20.95;;;18.30;99.90;;;;;;6250706;28;20053;-77
2023/05/23 02:59:54;;;;;;;31.85;21.02;;;18.20;99.90;;;;;;6250331;28;20045;-74
2023/05/23 03:02:56;;;;;;;36.13;21.92;;;18.20;99.90;;;;;;6250454;28;20053;-74
2023/05/23 03:05:58;;;;;;;33.97;22.70;;;18.20;99.90;;;;;;6250304;28;20056;-75
2023/05/23 03:09:01;;;;;;;38.30;24.05;;;18.10;99.90;;;;;;6250294;28;20475;-76
2023/05/23 03:12:02;;;;;;;43.20;26.83;;;18.10;99.90;;;;;;6249904;28;20050;-75
2023/05/23 03:15:07;;;;;;;42.10;23.60;;;18.10;99.90;;;;;;6250140;28;20049;-74
2023/05/23 03:18:09;;;;;;;49.92;27.73;;;18.10;99.90;;;;;;6249996;28;20053;-76
2023/05/23 03:21:11;;;;;;;37.55;23.10;;;18.10;99.90;;;;;;6249847;28;20053;-75
2023/05/23 03:24:15;;;;;;;38.97;23.83;;;18.10;99.90;;;;;;6249548;28;20072;-76
2023/05/23 03:27:17;;;;;;;36.03;24.13;;;18.10;99.90;;;;;;6249920;28;20049;-73
2023/05/23 03:30:21;;;;;;;41.70;26.10;;;18.10;99.90;;;;;;6249636;28;20052;-74
2023/05/23 03:33:22;;;;;;;41.05;24.85;;;18.00;99.90;;;;;;6249614;28;20057;-74
2023/05/23 03:36:27;;;;;;;38.13;24.90;;;18.00;99.90;;;;;;6249561;28;20056;-76
2023/05/23 03:39:29;;;;;;;46.70;27.52;;;17.90;99.90;;;;;;6249488;28;20080;-76
2023/05/23 03:42:30;;;;;;;48.47;27.80;;;17.90;99.90;;;;;;6249481;28;20041;-74
2023/05/23 03:45:34;;;;;;;46.45;26.90;;;17.80;99.90;;;;;;6261751;28;20054;-76
2023/05/23 03:48:36;;;;;;;44.15;26.88;;;17.80;99.90;;;;;;6265498;28;20050;-75
2023/05/23 03:51:38;;;;;;;50.58;29.90;;;17.80;99.90;;;;;;6263883;28;20426;-75
2023/05/23 03:54:40;;;;;;;48.53;28.95;;;17.80;99.90;;;;;;6267033;28;20045;-75
2023/05/23 03:57:42;;;;;;;46.47;28.35;;;17.80;99.90;;;;;;6255882;28;20045;-75
2023/05/23 04:00:45;;;;;;;53.10;31.20;;;17.80;99.90;;;;;;6265773;28;20406;-76
2023/05/23 04:03:47;;;;;;;58.72;34.60;;;17.80;99.90;;;;;;6270626;28;20152;-74
2023/05/23 04:06:49;;;;;;;59.05;34.97;;;17.70;99.90;;;;;;6274775;28;20046;-76
2023/05/23 04:09:51;;;;;;;60.30;36.20;;;17.70;99.90;;;;;;6267980;28;20053;-75
2023/05/23 04:12:53;;;;;;;58.63;35.53;;;17.80;99.90;;;;;;6255155;28;20053;-75
2023/05/23 04:15:56;;;;;;;66.18;38.05;;;17.80;99.90;;;;;;6249486;28;20045;-75
2023/05/23 04:18:58;;;;;;;66.97;36.90;;;17.80;99.90;;;;;;6249472;28;20056;-75
2023/05/23 04:22:00;;;;;;;70.10;40.25;;;17.70;99.90;;;;;;6253332;28;20054;-76
2023/05/23 04:25:05;;;;;;;63.15;36.67;;;17.70;99.90;;;;;;6254172;28;20124;-73
2023/05/23 04:28:09;;;;;;;64.85;37.83;;;17.80;99.90;;;;;;6248692;28;20046;-75
2023/05/23 04:31:12;;;;;;;67.20;38.45;;;17.80;99.90;;;;;;6248337;28;20057;-76
2023/05/23 04:34:16;;;;;;;62.83;37.17;;;17.90;99.90;;;;;;6248400;28;20056;-74
2023/05/23 04:37:20;;;;;;;65.38;38.00;;;17.90;99.90;;;;;;6248324;28;20056;-76
2023/05/23 04:40:23;;;;;;;63.22;36.17;;;18.00;99.90;;;;;;6248178;28;20407;-77
2023/05/23 04:43:25;;;;;;;65.28;35.70;;;18.00;99.90;;;;;;6247932;28;20049;-76
2023/05/23 04:46:28;;;;;;;60.20;35.28;;;18.00;99.90;;;;;;6247887;28;20435;-75
2023/05/23 04:49:32;;;;;;;56.17;32.80;;;18.00;99.90;;;;;;6248075;28;20050;-74
2023/05/23 04:52:34;;;;;;;51.47;31.65;;;18.00;99.90;;;;;;6247987;28;20045;-74
2023/05/23 04:55:36;;;;;;;50.70;31.45;;;18.10;99.90;;;;;;6247984;28;20049;-76
2023/05/23 04:58:39;;;;;;;52.67;31.45;;;18.10;99.90;;;;;;6247715;28;20045;-76
2023/05/23 05:01:42;;;;;;;51.80;31.33;;;18.10;99.90;;;;;;6247924;28;20136;-76
2023/05/23 05:04:44;;;;;;;51.35;31.42;;;18.10;99.90;;;;;;6247606;28;20052;-76
2023/05/23 05:07:46;;;;;;;52.83;33.17;;;18.10;99.90;;;;;;6247844;28;20064;-75
2023/05/23 05:10:48;;;;;;;49.60;31.33;;;18.10;99.90;;;;;;6248105;28;20207;-74
2023/05/23 05:13:50;;;;;;;52.63;31.38;;;18.20;99.90;;;;;;6247729;28;20045;-76
2023/05/23 05:16:56;;;;;;;58.05;35.40;;;18.20;99.90;;;;;;6247865;28;20048;-76
2023/05/23 05:19:58;;;;;;;62.88;38.65;;;18.10;99.90;;;;;;6246558;28;20502;-73
2023/05/23 05:23:02;;;;;;;60.10;36.90;;;18.00;99.90;;;;;;6247199;28;20053;-74
2023/05/23 05:26:05;;;;;;;60.50;37.58;;;18.00;99.90;;;;;;6249230;28;20045;-74
2023/05/23 05:29:06;;;;;;;64.65;38.03;;;18.00;99.90;;;;;;6248036;28;20049;-74
2023/05/23 05:32:10;;;;;;;63.70;37.92;;;18.00;99.90;;;;;;6247060;28;20057;-75
2023/05/23 05:35:13;;;;;;;62.08;37.63;;;18.00;99.90;;;;;;6247153;28;20510;-76
2023/05/23 05:38:15;;;;;;;65.25;37.97;;;17.90;99.90;;;;;;6247087;28;20064;-75
2023/05/23 05:41:16;;;;;;;60.03;36.30;;;17.90;99.90;;;;;;6247670;28;20045;-73
2023/05/23 05:44:18;;;;;;;60.45;37.90;;;18.00;99.90;;;;;;6247174;28;20061;-76
2023/05/23 05:47:21;;;;;;;61.55;37.50;;;18.00;99.90;;;;;;6247581;28;20060;-76
2023/05/23 05:50:24;;;;;;;59.75;36.10;;;18.00;99.90;;;;;;6247551;28;20052;-76
2023/05/23 05:53:26;;;;;;;58.03;36.08;;;18.10;99.90;;;;;;6250540;28;20144;-77
2023/05/23 05:56:27;;;;;;;61.72;37.13;;;18.10;99.90;;;;;;6250026;28;20045;-76
2023/05/23 05:59:29;;;;;;;56.05;36.20;;;18.10;99.90;;;;;;6248360;28;20052;-74
2023/05/23 06:02:33;;;;;;;59.42;35.92;;;18.20;99.90;;;;;;6249231;28;20140;-76
2023/05/23 06:05:36;;;;;;;62.60;37.22;;;18.20;99.90;;;;;;6248494;28;20050;-75
2023/05/23 06:08:38;;;;;;;57.63;36.47;;;18.20;99.90;;;;;;6248196;28;20041;-75
2023/05/23 06:11:39;;;;;;;60.10;37.55;;;18.30;99.90;;;;;;6249792;28;20054;-74
2023/05/23 06:14:41;;;;;;;60.25;38.50;;;18.40;99.90;;;;;;6247272;28;20057;-74
2023/05/23 06:17:45;;;;;;;56.65;36.60;;;18.40;99.90;;;;;;6255384;28;20048;-77
2023/05/23 06:20:46;;;;;;;56.33;36.50;;;18.40;99.90;;;;;;6262622;28;20054;-76
2023/05/23 06:23:48;;;;;;;60.40;38.72;;;18.40;99.90;;;;;;6243059;28;20054;-73
2023/05/23 06:26:50;;;;;;;60.90;38.75;;;18.40;99.90;;;;;;6243246;28;20041;-74
2023/05/23 06:29:52;;;;;;;56.50;37.28;;;18.50;99.90;;;;;;6234937;28;20057;-76
2023/05/23 06:32:55;;;;;;;60.40;38.40;;;18.50;99.90;;;;;;6226524;28;20046;-74
2023/05/23 06:35:57;;;;;;;58.65;37.33;;;18.60;99.90;;;;;;6226396;28;20527;-73
2023/05/23 06:38:59;;;;;;;57.92;36.72;;;18.50;99.90;;;;;;6226984;28;20053;-74
2023/05/23 06:42:01;;;;;;;62.22;39.08;;;18.50;99.90;;;;;;6234807;28;20056;-76
2023/05/23 06:45:03;;;;;;;57.05;38.50;;;18.60;99.90;;;;;;6233132;28;20064;-76
2023/05/23 06:48:07;;;;;;;58.95;38.95;;;18.60;99.90;;;;;;6232860;28;20054;-77
2023/05/23 06:51:09;;;;;;;59.67;37.58;;;18.50;99.90;;;;;;6230099;28;20057;-78
2023/05/23 06:54:11;;;;;;;60.00;38.58;;;18.60;99.90;;;;;;6231229;28;20054;-74
2023/05/23 06:57:13;;;;;;;52.72;36.72;;;18.60;99.90;;;;;;6231368;28;20046;-74
2023/05/23 07:00:16;;;;;;;54.75;37.55;;;18.60;99.90;;;;;;6226427;28;20408;-76
2023/05/23 07:03:19;;;;;;;55.33;36.50;;;18.60;99.90;;;;;;6226406;28;20057;-75
2023/05/23 07:06:21;;;;;;;56.92;38.38;;;18.60;99.90;;;;;;6226039;28;20068;-75
2023/05/23 07:09:23;;;;;;;55.13;38.70;;;18.50;99.90;;;;;;6208403;28;20048;-75
2023/05/23 07:12:24;;;;;;;55.55;39.72;;;18.60;99.90;;;;;;6225811;28;20056;-76
2023/05/23 07:15:26;;;;;;;53.40;37.92;;;18.60;99.90;;;;;;6225541;28;20049;-75
2023/05/23 07:18:29;;;;;;;58.33;37.78;;;18.60;99.90;;;;;;6225603;28;20404;-76
2023/05/23 07:21:31;;;;;;;56.55;38.35;;;18.50;99.90;;;;;;6237633;28;20049;-77
2023/05/23 07:24:33;;;;;;;58.78;40.13;;;18.50;99.90;;;;;;6249953;28;20438;-75
2023/05/23 07:27:35;;;;;;;57.85;39.78;;;18.40;99.90;;;;;;6250032;28;20042;-77
2023/05/23 07:30:37;;;;;;;53.67;38.72;;;18.40;99.90;;;;;;6249694;28;20056;-78
2023/05/23 07:33:40;;;;;;;59.40;40.47;;;18.40;99.90;;;;;;6249929;28;20060;-75
2023/05/23 07:36:42;;;;;;;52.58;37.10;;;18.50;99.90;;;;;;6249536;28;20045;-76
2023/05/23 07:39:43;;;;;;;55.92;39.53;;;18.60;99.90;;;;;;6249634;28;20060;-74
2023/05/23 07:42:45;;;;;;;54.10;39.40;;;18.60;99.90;;;;;;6248500;28;20063;-76
2023/05/23 07:45:47;;;;;;;52.58;38.17;;;18.60;99.90;;;;;;6249158;28;20387;-77
2023/05/23 07:48:50;;;;;;;55.28;38.65;;;18.60;99.90;;;;;;6249181;28;20046;-76
2023/05/23 07:51:52;;;;;;;53.80;40.33;;;18.50;99.90;;;;;;6249346;28;20046;-75
2023/05/23 07:54:55;;;;;;;56.20;39.80;;;18.40;99.90;;;;;;6249355;28;20053;-74
2023/05/23 07:57:56;;;;;;;52.65;39.40;;;18.40;99.90;;;;;;6249409;28;20132;-77
2023/05/23 08:00:58;;;;;;;53.88;37.92;;;18.30;99.90;;;;;;6249012;28;20056;-78
2023/05/23 08:04:02;;;;;;;50.42;37.72;;;18.20;99.90;;;;;;6249080;28;20053;-76
2023/05/23 08:07:06;;;;;;;47.05;36.78;;;18.00;99.90;;;;;;6248698;28;20558;-73
2023/05/23 08:10:09;;;;;;;48.97;35.17;;;17.90;99.90;;;;;;6249063;28;20041;-73
2023/05/23 08:13:11;;;;;;;47.20;35.53;;;17.80;99.90;;;;;;6253832;28;20045;-76
2023/05/23 08:16:13;;;;;;;50.10;35.67;;;17.80;99.90;;;;;;6250717;28;20502;-74
2023/05/23 08:19:16;;;;;;;41.15;32.33;;;17.70;99.90;;;;;;6249369;28;20052;-75
2023/05/23 08:22:18;;;;;;;46.42;33.92;;;17.80;99.90;;;;;;6248768;28;20049;-74
2023/05/23 08:25:20;;;;;;;43.80;32.92;;;17.90;99.90;;;;;;6248829;28;20510;-77
2023/05/23 08:28:21;;;;;;;42.92;33.63;;;17.90;99.90;;;;;;6248503;28;20057;-75
2023/05/23 08:31:23;;;;;;;45.00;32.60;;;17.90;99.90;;;;;;6248525;28;20049;-75
2023/05/23 08:34:26;;;;;;;44.28;32.10;;;17.90;99.90;;;;;;6248416;28;20053;-75
2023/05/23 08:37:28;;;;;;;42.00;31.45;;;18.00;99.90;;;;;;6248061;28;20076;-74
2023/05/23 08:40:31;;;;;;;44.58;33.97;;;18.00;99.90;;;;;;6248275;28;20060;-77
2023/05/23 08:43:33;;;;;;;45.55;36.22;;;18.00;99.90;;;;;;6248458;28;20049;-77
2023/05/23 08:46:41;;;;;;;48.45;36.65;;;18.00;99.90;;;;;;6247925;28;20068;-76
2023/05/23 08:49:46;;;;;;;51.50;37.50;;;17.90;99.90;;;;;;6248095;28;20061;-76
2023/05/23 08:52:54;;;;;;;50.65;36.13;;;17.90;99.90;;;;;;6248163;28;20061;-74
2023/05/23 08:56:01;;;;;;;46.88;34.78;;;17.90;99.90;;;;;;6248559;28;20042;-75
2023/05/23 08:59:04;;;;;;;42.78;33.28;;;17.90;99.90;;;;;;6248919;28;20403;-75
2023/05/23 09:02:10;;;;;;;42.97;32.25;;;17.80;99.90;;;;;;6254648;28;20041;-74
2023/05/23 09:05:14;;;;;;;45.30;32.40;;;17.80;99.90;;;;;;6255170;28;20056;-76
2023/05/23 09:08:18;;;;;;;42.03;33.00;;;17.80;99.90;;;;;;6259443;28;20049;-76
2023/05/23 09:11:20;;;;;;;42.38;33.22;;;17.80;99.90;;;;;;6263361;28;20045;-75
2023/05/23 09:14:22;;;;;;;40.15;29.48;;;17.70;99.90;;;;;;6263980;28;20406;-77
2023/05/23 09:17:24;;;;;;;37.63;28.88;;;17.60;99.90;;;;;;6262281;28;20068;-77
2023/05/23 09:20:28;;;;;;;38.17;28.73;;;17.50;99.90;;;;;;6263386;28;20057;-76
2023/05/23 09:23:31;;;;;;;36.40;27.13;;;17.60;99.90;;;;;;6258864;28;20057;-75
2023/05/23 09:26:34;;;;;;;34.95;26.42;;;17.50;99.90;;;;;;6253184;28;20041;-74
2023/05/23 09:29:39;;;;;;;35.38;27.40;;;17.60;99.90;;;;;;6252816;28;20049;-74
2023/05/23 09:32:41;;;;;;;30.77;24.35;;;17.70;99.90;;;;;;6253900;28;20056;-76
2023/05/23 09:35:47;;;;;;;31.00;23.65;;;17.70;99.90;;;;;;6250164;28;20045;-75
2023/05/23 09:38:51;;;;;;;31.55;23.00;;;17.60;99.90;;;;;;6248375;28;20049;-76
2023/05/23 09:41:52;;;;;;;;;;;17.60;99.90;;;;;;6249625;28;20240;-75
2023/05/23 09:44:56;;;;;;;26.30;21.67;;;17.50;99.90;;;;;;6250783;28;19921;-75
2023/05/23 09:47:58;;;;;;;29.48;22.33;;;17.50;99.90;;;;;;6250839;28;20061;-75
2023/05/23 09:51:04;;;;;;;28.75;21.20;;;17.50;99.90;;;;;;6250065;28;20049;-74
2023/05/23 09:54:06;;;;;;;27.35;21.10;;;17.50;99.90;;;;;;6250024;28;20049;-75
2023/05/23 09:57:11;;;;;;;29.50;21.67;;;17.60;99.90;;;;;;6250211;28;20045;-76
2023/05/23 10:00:14;;;;;;;31.27;23.05;;;17.70;99.90;;;;;;6249904;28;20526;-74
2023/05/23 10:03:17;;;;;;;26.75;20.60;;;17.60;99.90;;;;;;6251117;28;20522;-77
2023/05/23 10:06:26;;;;;;;29.85;22.02;;;17.70;99.90;;;;;;6254880;28;20054;-76
2023/05/23 10:09:33;;;;;;;32.80;21.80;;;17.70;99.90;;;;;;6256177;28;20467;-76
2023/05/23 10:12:47;;;;;;;31.98;23.95;;;17.70;99.90;;;;;;6255537;28;20056;-75
2023/05/23 10:15:50;;;;;;;29.52;21.55;;;17.50;99.90;;;;;;6254815;28;20053;-76
2023/05/23 10:18:57;;;;;;;31.25;21.23;;;17.80;99.90;;;;;;6255798;28;20042;-76
2023/05/23 10:22:05;;;;;;;27.33;20.83;;;17.80;99.90;;;;;;6254712;28;20492;-76
2023/05/23 10:25:09;;;;;;;28.63;21.60;;;17.80;99.90;;;;;;6255562;28;20049;-76
2023/05/23 10:28:12;;;;;;;26.83;20.75;;;17.80;99.90;;;;;;6255809;28;20052;-76
2023/05/23 10:31:14;;;;;;;26.25;19.15;;;17.90;99.90;;;;;;6255289;28;20439;-76
2023/05/23 10:34:24;;;;;;;26.02;19.90;;;17.80;99.90;;;;;;6254910;28;20057;-75
2023/05/23 10:37:35;;;;;;;26.23;19.88;;;17.80;99.90;;;;;;6255169;28;20422;-75
2023/05/23 10:40:50;;;;;;;23.90;18.83;;;17.90;99.90;;;;;;6254800;28;20405;-79
2023/05/23 10:44:05;;;;;;;28.30;19.20;;;18.00;99.90;;;;;;6271195;28;20471;-76
2023/05/23 10:47:06;;;;;;;24.85;18.85;;;18.00;99.90;;;;;;6271458;28;20056;-76
2023/05/23 10:50:13;;;;;;;26.98;18.23;;;18.00;99.90;;;;;;6275636;28;20072;-76
2023/05/23 10:53:16;;;;;;;25.27;18.02;;;18.10;99.90;;;;;;6273161;28;20594;-76
2023/05/23 10:56:23;;;;;;;24.60;17.45;;;18.10;99.90;;;;;;6271347;28;20049;-74
2023/05/23 10:59:28;;;;;;;24.20;18.05;;;18.10;99.90;;;;;;6259605;28;20107;-76
2023/05/23 11:02:30;;;;;;;22.30;16.95;;;18.20;99.90;;;;;;6253320;28;20049;-75
2023/05/23 11:05:34;;;;;;;22.10;16.17;;;18.30;99.90;;;;;;6253034;28;20053;-75
2023/05/23 11:08:44;;;;;;;;;;;18.40;99.90;;;;;;6252606;28;20501;-78
2023/05/23 11:12:02;;;;;;;21.27;15.52;;;18.40;99.90;;;;;;6251709;28;19932;-76
2023/05/23 11:15:20;;;;;;;20.98;16.08;;;18.50;99.90;;;;;;6251261;28;20052;-75
2023/05/23 11:18:26;;;;;;;22.73;15.85;;;18.40;99.90;;;;;;6251110;28;20057;-77
2023/05/23 11:21:30;;;;;;;20.52;15.68;;;18.40;99.90;;;;;;6251667;28;20058;-76
2023/05/23 11:24:53;;;;;;;21.17;14.73;;;18.40;99.90;;;;;;6251405;28;20057;-76
2023/05/23 11:27:55;;;;;;;;;;;18.40;99.90;;;;;;6252289;28;20056;-77
2023/05/23 11:30:57;;;;;;;18.60;14.32;;;18.40;99.90;;;;;;6251793;28;19921;-76
2023/05/23 11:34:00;;;;;;;21.05;14.95;;;18.60;99.90;;;;;;6252207;28;20046;-74
2023/05/23 11:37:02;;;;;;;19.83;14.02;;;18.70;99.90;;;;;;6234754;28;20073;-76
2023/05/23 11:40:28;;;;;;;16.35;12.93;;;18.90;99.90;;;;;;6251558;28;20068;-77
2023/05/23 11:43:31;;;;;;;17.08;13.35;;;19.10;99.80;;;;;;6251179;28;20073;-75
2023/05/23 11:46:33;;;;;;;18.38;13.80;;;19.10;99.40;;;;;;6251148;28;20545;-77
2023/05/23 11:49:40;;;;;;;17.05;12.95;;;19.20;99.10;;;;;;6250645;28;20045;-77
2023/05/23 11:52:41;;;;;;;15.15;11.77;;;19.20;99.00;;;;;;6249503;28;20119;-77
2023/05/23 11:55:52;;;;;;;18.25;11.20;;;19.20;99.10;;;;;;6250678;28;20053;-76
2023/05/23 11:58:57;;;;;;;17.58;12.82;;;19.20;98.70;;;;;;6249943;28;20170;-76
2023/05/23 12:01:59;;;;;;;16.08;11.90;;;19.20;98.30;;;;;;6251051;28;20056;-75
2023/05/23 12:05:08;;;;;;;14.80;11.23;;;19.30;98.40;;;;;;6250742;28;20050;-74
2023/05/23 12:08:12;;;;;;;15.93;10.60;;;19.30;98.40;;;;;;6250861;28;20053;-75
2023/05/23 12:11:15;;;;;;;14.95;10.73;;;19.30;98.30;;;;;;6250642;28;20084;-77
2023/05/23 12:14:18;;;;;;;12.05;9.88;;;19.50;98.10;;;;;;6250194;28;20045;-77
2023/05/23 12:17:20;;;;;;;12.10;9.07;;;19.70;97.80;;;;;;6250511;28;20052;-77
2023/05/23 12:20:22;;;;;;;12.60;9.75;;;19.90;97.20;;;;;;6250004;28;20423;-77
2023/05/23 12:23:26;;;;;;;13.65;9.90;;;20.10;96.80;;;;;;6250458;28;20069;-78
2023/05/23 12:26:29;;;;;;;11.43;9.38;;;20.20;96.00;;;;;;6250016;28;20049;-76
2023/05/23 12:29:35;;;;;;;13.90;9.50;;;20.10;95.90;;;;;;6250061;28;20053;-76
2023/05/23 12:32:40;;;;;;;11.15;8.73;;;20.30;94.90;;;;;;6250815;28;20052;-78
2023/05/23 12:35:45;;;;;;;10.80;7.78;;;20.30;95.00;;;;;;6249781;28;20088;-77
2023/05/23 12:38:48;;;;;;;13.18;8.20;;;20.50;94.80;;;;;;6249907;28;20053;-76
2023/05/23 12:41:51;;;;;;;10.97;7.63;;;20.70;93.40;;;;;;6249729;28;20045;-77
2023/05/23 12:44:54;;;;;;;10.15;7.95;;;20.70;93.80;;;;;;6249723;28;20252;-77
2023/05/23 12:47:56;;;;;;;;;;;20.80;93.10;;;;;;6250065;28;20042;-77
2023/05/23 12:50:58;;;;;;;12.15;9.70;;;20.70;93.10;;;;;;6249124;28;19936;-76
2023/05/23 12:53:59;;;;;;;13.10;9.10;;;20.70;92.80;;;;;;6248449;28;20054;-76
2023/05/23 12:57:03;;;;;;;11.95;8.95;;;20.60;93.00;;;;;;6247939;28;20487;-77
2023/05/23 13:00:07;;;;;;;12.05;8.38;;;20.70;92.50;;;;;;6248061;28;20050;-77
2023/05/23 13:03:09;;;;;;;12.63;8.93;;;20.80;92.10;;;;;;6247998;28;20349;-77
2023/05/23 13:06:10;;;;;;;12.90;9.20;;;21.10;91.50;;;;;;6248990;28;20076;-75
2023/05/23 13:09:12;;;;;;;11.80;9.88;;;21.10;91.20;;;;;;6250289;28;20059;-76
2023/05/23 13:12:15;;;;;;;14.10;10.05;;;20.80;91.60;;;;;;6250763;28;20053;-76
2023/05/23 13:15:17;;;;;;;10.15;8.75;;;20.50;92.50;;;;;;6250208;28;20049;-76
2023/05/23 13:18:20;;;;;;;10.77;8.82;;;20.70;92.80;;;;;;6249808;28;20049;-76
2023/05/23 13:21:24;;;;;;;9.60;8.43;;;21.00;92.60;;;;;;6249328;28;20068;-76
2023/05/23 13:24:26;;;;;;;10.80;7.80;;;21.20;91.40;;;;;;6248507;28;20054;-75
2023/05/23 13:27:32;;;;;;;10.55;7.32;;;21.40;90.30;;;;;;6249128;28;20056;-74
2023/05/23 13:30:34;;;;;;;10.60;8.45;;;21.40;90.00;;;;;;6248736;28;20076;-74
2023/05/23 13:33:36;;;;;;;9.07;7.27;;;21.30;90.30;;;;;;6248580;28;20049;-74
2023/05/23 13:36:38;;;;;;;9.50;7.77;;;21.50;89.70;;;;;;6248675;28;20071;-75
2023/05/23 13:39:40;;;;;;;10.70;7.57;;;21.60;89.00;;;;;;6249960;28;20050;-78
2023/05/23 13:42:44;;;;;;;9.02;6.80;;;21.60;89.80;;;;;;6253536;28;20060;-76
2023/05/23 13:45:46;;;;;;;9.88;7.40;;;21.50;90.70;;;;;;6252991;28;20159;-75
2023/05/23 13:48:48;;;;;;;9.18;7.70;;;21.50;90.30;;;;;;6253146;28;20048;-76
2023/05/23 13:51:49;;;;;;;9.65;6.95;;;21.40;90.40;;;;;;6253528;28;20050;-76
2023/05/23 13:54:51;;;;;;;8.73;6.43;;;21.60;88.30;;;;;;6253236;28;20053;-77
2023/05/23 13:57:55;;;;;;;9.00;5.25;;;22.00;88.00;;;;;;6253694;28;20041;-76
2023/05/23 14:00:57;;;;;;;7.18;5.57;;;22.40;86.00;;;;;;6254380;28;20384;-75
2023/05/23 14:03:59;;;;;;;8.60;6.05;;;22.70;84.60;;;;;;6253638;28;20081;-75
2023/05/23 14:07:01;;;;;;;7.80;5.75;;;22.60;85.40;;;;;;6252774;28;20054;-77
2023/05/23 14:10:03;;;;;;;7.43;5.53;;;22.60;84.30;;;;;;6253550;28;20042;-75
2023/05/23 14:13:08;;;;;;;7.20;5.70;;;22.80;84.70;;;;;;6253484;28;20045;-75
2023/05/23 14:16:10;;;;;;;8.20;5.95;;;22.70;84.20;;;;;;6253221;28;20053;-77
2023/05/23 14:19:11;;;;;;;7.95;5.72;;;22.50;85.50;;;;;;6252382;28;20365;-78
2023/05/23 14:22:15;;;;;;;7.25;5.43;;;22.20;85.20;;;;;;6234589;28;20057;-75
2023/05/23 14:25:17;;;;;;;7.97;5.70;;;21.70;87.30;;;;;;6228374;28;20050;-77
2023/05/23 14:28:21;;;;;;;10.50;5.22;;;21.60;88.80;;;;;;6227065;28;20046;-76
2023/05/23 14:31:23;;;;;;;7.20;5.32;;;21.70;89.80;;;;;;6227048;28;20064;-74
2023/05/23 14:34:25;;;;;;;7.45;5.47;;;21.60;90.00;;;;;;6227402;28;20132;-76
2023/05/23 14:37:27;;;;;;;7.65;4.88;;;21.50;90.00;;;;;;6226970;28;20049;-76
2023/05/23 14:40:28;;;;;;;7.50;4.97;;;21.40;90.10;;;;;;6227009;28;20561;-74
2023/05/23 14:43:32;;;;;;;7.78;5.38;;;21.40;89.90;;;;;;6227358;28;20046;-77
2023/05/23 14:46:33;;;;;;;;;;;21.10;90.00;;;;;;6227690;28;20057;-75
2023/05/23 14:49:35;;;;;;;7.78;4.78;;;21.20;90.60;;;;;;6226653;28;19928;-76
2023/05/23 14:52:37;;;;;;;6.53;4.53;;;21.40;90.30;;;;;;6226148;28;20050;-77
2023/05/23 14:55:39;;;;;;;6.80;4.70;;;21.50;89.70;;;;;;6226735;28;20065;-76
2023/05/23 14:58:44;;;;;;;6.60;4.45;;;21.30;89.50;;;;;;6226476;28;20077;-75
2023/05/23 15:01:46;;;;;;;7.60;4.70;;;21.30;90.00;;;;;;6226562;28;20136;-75
2023/05/23 15:04:48;;;;;;;6.80;4.05;;;21.30;90.40;;;;;;6226617;28;20050;-75
2023/05/23 15:07:50;;;;;;;5.95;4.07;;;21.40;90.40;;;;;;6226536;28;20054;-76
2023/05/23 15:10:52;;;;;;;5.68;4.45;;;21.40;90.90;;;;;;6226091;28;20045;-74
2023/05/23 15:13:55;;;;;;;9.18;4.68;;;21.40;90.60;;;;;;6226382;28;20049;-77
2023/05/23 15:16:57;;;;;;;;;;;21.20;91.40;;;;;;6226844;28;20056;-76
2023/05/23 15:20:00;;;;;;;7.55;5.00;;;21.40;89.90;;;;;;6225782;28;20386;-77
2023/05/23 15:23:01;;;;;;;6.70;4.60;;;21.40;89.40;;;;;;6250243;28;20061;-79
2023/05/23 15:26:03;;;;;;;6.38;4.82;;;21.30;89.60;;;;;;6250506;28;20048;-76
2023/05/23 15:29:06;;;;;;;5.38;4.22;;;21.50;89.40;;;;;;6255349;28;20049;-76
2023/05/23 15:32:08;;;;;;;6.55;4.45;;;22.20;87.30;;;;;;6253663;28;20045;-75
2023/05/23 15:35:10;;;;;;;7.32;4.18;;;22.40;85.70;;;;;;6250679;28;20061;-76
2023/05/23 15:38:12;;;;;;;6.80;4.40;;;22.30;86.00;;;;;;6250507;28;20099;-76